Time;durP1;ratioP1;P1;durP2;ratioP2;P2;SDS_P1;SDS_P2;PMS_P1;PMS_P2;Temp;Humidity;BMP_temperature;BMP_pressure;BME280_temperature;BME280_humidity;BME280_pressure;Samples;Min_cycle;Max_cycle;Signal;HPM_P1;HPM_P2
2022/06/26 00:02:11;;;;;;;10.83;9.93;;;19.80;99.90;;;;;;5043288;28;20224;-55
2022/06/26 00:04:38;;;;;;;9.13;8.33;;;19.70;99.90;;;;;;5039035;28;20245;-55
2022/06/26 00:07:05;;;;;;;9.20;8.40;;;19.70;99.90;;;;;;5043244;28;20203;-53
2022/06/26 00:09:32;;;;;;;9.30;8.53;;;19.70;99.90;;;;;;5039326;28;20210;-53
2022/06/26 00:11:59;;;;;;;9.77;8.83;;;19.70;99.90;;;;;;5028262;28;20227;-54
2022/06/26 00:14:26;;;;;;;9.60;8.80;;;19.70;99.90;;;;;;5032721;28;20223;-55
2022/06/26 00:16:53;;;;;;;9.97;9.07;;;19.60;99.90;;;;;;5027705;28;20211;-54
2022/06/26 00:19:21;;;;;;;8.20;7.50;;;19.60;99.90;;;;;;5041287;28;20210;-54
2022/06/26 00:21:50;;;;;;;8.63;7.77;;;19.60;99.90;;;;;;5039796;28;21014;-52
2022/06/26 00:24:17;;;;;;;11.60;9.23;;;19.60;99.90;;;;;;5041752;28;20223;-56
2022/06/26 00:26:44;;;;;;;10.90;9.90;;;19.50;99.90;;;;;;5027953;28;20207;-55
2022/06/26 00:29:11;;;;;;;9.87;9.17;;;19.50;99.90;;;;;;5046524;28;20270;-55
2022/06/26 00:31:38;;;;;;;10.03;9.13;;;19.50;99.90;;;;;;5036257;28;20226;-53
2022/06/26 00:34:05;;;;;;;10.40;9.50;;;19.40;99.90;;;;;;5045073;28;20222;-53
2022/06/26 00:36:33;;;;;;;10.63;9.73;;;19.40;99.90;;;;;;5042856;28;20561;-53
2022/06/26 00:39:00;;;;;;;10.33;9.33;;;19.40;99.90;;;;;;5045325;28;20717;-54
2022/06/26 00:41:26;;;;;;;10.27;9.37;;;19.40;99.90;;;;;;5043765;28;20215;-56
2022/06/26 00:43:53;;;;;;;11.17;10.07;;;19.40;99.90;;;;;;5029494;28;20203;-56
2022/06/26 00:46:24;;;;;;;10.07;9.17;;;19.30;99.90;;;;;;5037972;28;20199;-54
2022/06/26 00:48:52;;;;;;;10.37;9.00;;;19.30;99.90;;;;;;5045367;28;20183;-52
2022/06/26 00:51:20;;;;;;;9.80;8.90;;;19.30;99.90;;;;;;5043554;28;20301;-55
2022/06/26 00:53:48;;;;;;;9.73;8.93;;;19.20;99.90;;;;;;5043668;28;20305;-55
2022/06/26 00:56:15;;;;;;;13.07;9.37;;;19.30;99.90;;;;;;5045813;28;20206;-56
2022/06/26 00:58:43;;;;;;;9.80;8.93;;;19.30;99.90;;;;;;5027441;28;20207;-55
2022/06/26 01:01:10;;;;;;;9.17;8.27;;;19.30;99.90;;;;;;5045720;28;20261;-50
2022/06/26 01:03:37;;;;;;;9.10;8.40;;;19.20;99.90;;;;;;5041907;28;20203;-52
2022/06/26 01:06:06;;;;;;;10.03;9.23;;;19.20;99.90;;;;;;5045788;28;20214;-55
2022/06/26 01:08:33;;;;;;;10.07;9.20;;;19.20;99.90;;;;;;5042219;28;20203;-56
2022/06/26 01:11:17;;;;;;;9.77;8.97;;;19.20;99.90;;;;;;5042775;28;20245;-53
2022/06/26 01:13:45;;;;;;;9.00;8.07;;;19.20;99.90;;;;;;5042589;28;20292;-54
2022/06/26 01:16:14;;;;;;;7.17;6.67;;;19.20;99.90;;;;;;5030902;28;20707;-56
2022/06/26 01:18:41;;;;;;;7.53;7.03;;;19.30;99.90;;;;;;5041267;28;20198;-54
2022/06/26 01:21:08;;;;;;;7.40;6.90;;;19.30;99.90;;;;;;5044632;28;20235;-54
2022/06/26 01:23:37;;;;;;;7.53;6.97;;;19.30;99.90;;;;;;5041366;28;20270;-51
2022/06/26 01:26:05;;;;;;;9.27;8.47;;;19.30;99.90;;;;;;5045843;28;20282;-53
2022/06/26 01:28:32;;;;;;;8.43;7.73;;;19.20;99.90;;;;;;5041664;28;20303;-52
2022/06/26 01:30:59;;;;;;;8.73;7.90;;;19.20;99.90;;;;;;5031177;28;20337;-51
2022/06/26 01:33:26;;;;;;;8.30;7.77;;;19.20;99.90;;;;;;5042180;28;20216;-54
2022/06/26 01:35:53;;;;;;;9.03;8.23;;;19.20;99.90;;;;;;5043511;28;20214;-51
2022/06/26 01:38:24;;;;;;;8.17;7.50;;;19.20;99.90;;;;;;5041419;28;20212;-55
2022/06/26 01:40:56;;;;;;;8.17;7.47;;;19.20;99.90;;;;;;5042341;28;20282;-50
2022/06/26 01:43:26;;;;;;;8.70;7.90;;;19.30;99.90;;;;;;5037171;28;20285;-53
2022/06/26 01:45:55;;;;;;;8.30;7.70;;;19.20;99.90;;;;;;5020418;28;20282;-51
2022/06/26 01:48:28;;;;;;;7.50;6.90;;;19.20;99.90;;;;;;5041075;28;20209;-54
2022/06/26 01:50:59;;;;;;;8.50;7.80;;;19.30;99.90;;;;;;5038708;28;20226;-53
2022/06/26 01:53:27;;;;;;;7.43;6.83;;;19.30;99.90;;;;;;5040878;28;20229;-55
2022/06/26 01:55:55;;;;;;;8.07;7.50;;;19.30;99.90;;;;;;5044307;28;20258;-54
2022/06/26 01:58:33;;;;;;;7.53;6.93;;;19.30;99.90;;;;;;5039943;28;20206;-49
2022/06/26 02:01:01;;;;;;;8.03;7.33;;;19.30;99.90;;;;;;5029302;28;20261;-52
2022/06/26 02:03:29;;;;;;;8.00;7.30;;;19.20;99.90;;;;;;5039818;28;20645;-56
2022/06/26 02:05:56;;;;;;;8.93;7.60;;;19.20;99.90;;;;;;5043604;28;20211;-54
2022/06/26 02:08:23;;;;;;;7.30;6.60;;;19.20;99.90;;;;;;5041503;28;20199;-55
2022/06/26 02:13:37;;;;;;;8.03;7.23;;;19.20;99.90;;;;;;5038784;28;20249;-54
2022/06/26 02:16:09;;;;;;;7.47;6.97;;;19.20;99.90;;;;;;5043515;28;20569;-54
2022/06/26 02:18:37;;;;;;;7.73;7.13;;;19.10;99.90;;;;;;5025881;28;20191;-56
2022/06/26 02:21:06;;;;;;;7.20;6.67;;;19.10;99.90;;;;;;5036800;28;20668;-57
2022/06/26 02:23:33;;;;;;;7.50;6.90;;;19.10;99.90;;;;;;5033050;28;20210;-55
2022/06/26 02:26:01;;;;;;;7.67;7.07;;;19.10;99.90;;;;;;5030166;28;20684;-54
2022/06/26 02:28:28;;;;;;;7.70;7.07;;;19.00;99.90;;;;;;5041439;28;20210;-57
2022/06/26 02:30:57;;;;;;;8.37;7.77;;;19.00;99.90;;;;;;5043051;28;20211;-51
2022/06/26 02:33:26;;;;;;;8.17;7.53;;;19.00;99.90;;;;;;5025156;28;20577;-57
2022/06/26 02:35:54;;;;;;;8.50;7.70;;;19.00;99.90;;;;;;5036129;28;20223;-55
2022/06/26 02:38:23;;;;;;;8.57;7.87;;;19.00;99.90;;;;;;5041215;28;20214;-57
2022/06/26 02:40:50;;;;;;;8.50;7.90;;;19.00;99.90;;;;;;5041643;28;20187;-54
2022/06/26 02:43:18;;;;;;;7.50;7.00;;;19.00;99.90;;;;;;5041724;28;20231;-57
2022/06/26 02:45:46;;;;;;;8.47;7.63;;;19.00;99.90;;;;;;5041929;28;20187;-49
2022/06/26 02:48:14;;;;;;;8.63;8.00;;;19.00;99.90;;;;;;5027976;28;20212;-55
2022/06/26 02:50:42;;;;;;;8.13;7.50;;;19.00;99.90;;;;;;5040545;28;20869;-54
2022/06/26 02:53:10;;;;;;;8.13;7.53;;;19.00;99.90;;;;;;5042523;28;20233;-53
2022/06/26 02:55:37;;;;;;;7.23;6.63;;;19.00;99.90;;;;;;5038475;28;20310;-55
2022/06/26 02:58:05;;;;;;;8.37;7.70;;;19.00;99.90;;;;;;5042728;28;20203;-53
2022/06/26 03:00:40;;;;;;;7.93;7.43;;;18.90;99.90;;;;;;5038881;28;20190;-56
2022/06/26 03:03:07;;;;;;;8.57;7.87;;;18.90;99.90;;;;;;5026664;28;20589;-56
2022/06/26 03:05:36;;;;;;;8.70;7.90;;;18.90;99.90;;;;;;5035033;28;20184;-53
2022/06/26 03:08:05;;;;;;;8.50;7.80;;;18.90;99.90;;;;;;5042380;28;20199;-52
2022/06/26 03:10:33;;;;;;;9.30;8.60;;;19.00;99.90;;;;;;5038527;28;20293;-57
2022/06/26 03:13:03;;;;;;;8.67;8.00;;;18.90;99.90;;;;;;5042202;28;20581;-55
2022/06/26 03:15:31;;;;;;;8.77;8.07;;;18.90;99.90;;;;;;5038403;28;20840;-56
2022/06/26 03:18:02;;;;;;;9.60;8.80;;;18.90;99.90;;;;;;5028087;28;20218;-56
2022/06/26 03:20:30;;;;;;;7.97;7.17;;;18.90;99.90;;;;;;5038652;28;20202;-56
2022/06/26 03:22:58;;;;;;;7.67;7.13;;;18.90;99.90;;;;;;5041039;28;20212;-50
2022/06/26 03:25:25;;;;;;;9.83;9.03;;;18.90;99.90;;;;;;5038991;28;20556;-55
2022/06/26 03:27:52;;;;;;;10.10;8.40;;;18.90;99.90;;;;;;5042688;28;20230;-52
2022/06/26 03:30:20;;;;;;;8.93;8.23;;;18.80;99.90;;;;;;5040740;28;20211;-57
2022/06/26 03:32:50;;;;;;;8.93;8.33;;;18.80;99.90;;;;;;5027724;28;20220;-54
2022/06/26 03:35:17;;;;;;;10.33;9.43;;;18.80;99.90;;;;;;5040655;28;20554;-53
2022/06/26 03:37:46;;;;;;;9.80;8.97;;;18.80;99.90;;;;;;5039842;28;20198;-50
2022/06/26 03:40:14;;;;;;;9.33;8.63;;;18.80;99.90;;;;;;5039367;28;20675;-52
2022/06/26 03:42:41;;;;;;;10.53;9.63;;;18.80;99.90;;;;;;5039666;28;20308;-52
2022/06/26 03:45:09;;;;;;;10.40;9.60;;;18.70;99.90;;;;;;5041802;28;20763;-52
2022/06/26 03:47:36;;;;;;;9.13;8.30;;;18.70;99.90;;;;;;5039532;28;20827;-53
2022/06/26 03:50:04;;;;;;;9.80;9.10;;;18.70;99.90;;;;;;5029122;28;20200;-50
2022/06/26 03:52:32;;;;;;;10.70;9.63;;;18.70;99.90;;;;;;5037597;28;20243;-57
2022/06/26 03:55:01;;;;;;;11.33;10.30;;;18.70;99.90;;;;;;5041640;28;20223;-54
2022/06/26 03:57:29;;;;;;;10.80;9.90;;;18.70;99.90;;;;;;5038827;28;20209;-54
2022/06/26 03:59:57;;;;;;;11.00;10.00;;;18.70;99.90;;;;;;5042010;28;20575;-55
2022/06/26 04:02:57;;;;;;;10.07;9.07;;;18.70;99.90;;;;;;5047196;28;20626;-52
2022/06/26 04:05:26;;;;;;;9.50;8.70;;;18.70;99.90;;;;;;5028350;28;20214;-55
2022/06/26 04:07:57;;;;;;;11.20;10.20;;;18.70;99.90;;;;;;5042736;28;20203;-55
2022/06/26 04:10:33;;;;;;;13.57;10.63;;;18.70;99.90;;;;;;5038912;28;20191;-57
2022/06/26 04:13:02;;;;;;;12.87;11.67;;;18.70;99.90;;;;;;5045445;28;20223;-54
2022/06/26 04:15:36;;;;;;;13.23;12.03;;;18.80;99.90;;;;;;5041667;28;20631;-55
2022/06/26 04:18:05;;;;;;;12.87;11.67;;;18.80;99.90;;;;;;5045788;28;20211;-55
2022/06/26 04:20:33;;;;;;;13.33;12.13;;;18.90;99.90;;;;;;5021071;28;20203;-56
2022/06/26 04:23:06;;;;;;;13.90;12.77;;;18.90;99.90;;;;;;5045147;28;20629;-53
2022/06/26 04:25:36;;;;;;;13.17;12.00;;;18.90;99.90;;;;;;5038881;28;20784;-52
2022/06/26 04:28:05;;;;;;;14.17;12.80;;;19.00;99.90;;;;;;5045684;28;20282;-51
2022/06/26 04:30:36;;;;;;;12.67;11.53;;;19.00;99.90;;;;;;5041708;28;20284;-53
2022/06/26 04:33:03;;;;;;;13.17;12.03;;;19.10;99.90;;;;;;5045446;28;20605;-54
2022/06/26 04:35:33;;;;;;;14.47;13.13;;;19.10;99.90;;;;;;5026521;28;20316;-56
2022/06/26 04:38:00;;;;;;;12.53;11.43;;;19.20;99.90;;;;;;5046703;28;20549;-53
2022/06/26 04:40:28;;;;;;;12.83;11.70;;;19.20;99.90;;;;;;5042139;28;20199;-56
2022/06/26 04:42:55;;;;;;;12.70;11.60;;;19.30;99.90;;;;;;5044444;28;21055;-51
2022/06/26 04:45:24;;;;;;;13.43;12.23;;;19.20;99.90;;;;;;5043032;28;20202;-55
2022/06/26 04:47:54;;;;;;;14.10;12.77;;;19.30;99.90;;;;;;5044567;28;20203;-54
2022/06/26 04:50:22;;;;;;;13.20;12.00;;;19.30;99.90;;;;;;5042543;28;20290;-55
2022/06/26 04:52:50;;;;;;;13.27;11.37;;;19.40;99.90;;;;;;5028065;28;20912;-50
2022/06/26 04:55:18;;;;;;;14.47;13.07;;;19.40;99.90;;;;;;5043090;28;20218;-54
2022/06/26 04:57:47;;;;;;;12.70;11.60;;;19.40;99.90;;;;;;5043046;28;20207;-53
2022/06/26 05:00:16;;;;;;;12.47;11.17;;;19.50;99.90;;;;;;5021331;28;20231;-54
2022/06/26 05:02:54;;;;;;;12.47;11.30;;;19.60;99.90;;;;;;5043006;28;20226;-57
2022/06/26 05:05:39;;;;;;;12.63;11.40;;;19.60;99.90;;;;;;5037072;28;20214;-56
2022/06/26 05:08:35;;;;;;;12.37;11.27;;;19.70;99.90;;;;;;5019291;28;20199;-54
2022/06/26 05:11:03;;;;;;;14.20;11.40;;;19.80;99.90;;;;;;5029926;28;20203;-51
2022/06/26 05:13:33;;;;;;;11.73;10.73;;;19.80;99.90;;;;;;5028586;28;20230;-56
2022/06/26 05:16:19;;;;;;;12.17;10.97;;;19.90;99.90;;;;;;5036175;28;20246;-54
2022/06/26 05:18:47;;;;;;;11.87;10.83;;;20.00;99.90;;;;;;5032146;28;20196;-53
2022/06/26 05:21:14;;;;;;;11.17;10.00;;;20.10;99.90;;;;;;5032383;28;20566;-54
2022/06/26 05:23:42;;;;;;;10.90;10.10;;;20.10;99.90;;;;;;5023421;28;20208;-56
2022/06/26 05:26:11;;;;;;;11.07;10.03;;;20.20;99.90;;;;;;5041661;28;20197;-57
2022/06/26 05:28:38;;;;;;;10.50;9.60;;;20.30;99.90;;;;;;5030168;28;20203;-56
2022/06/26 05:31:05;;;;;;;10.50;9.60;;;20.40;99.90;;;;;;5030117;28;20215;-53
2022/06/26 05:33:36;;;;;;;10.03;9.30;;;20.40;99.90;;;;;;5028083;28;20294;-56
2022/06/26 05:36:06;;;;;;;10.37;9.43;;;20.50;99.90;;;;;;5042756;28;20223;-57
2022/06/26 05:38:32;;;;;;;10.10;9.13;;;20.60;99.90;;;;;;5025070;28;20302;-57
2022/06/26 05:40:59;;;;;;;10.10;9.23;;;20.60;99.90;;;;;;5042932;28;20210;-56
2022/06/26 05:43:27;;;;;;;9.27;8.57;;;20.70;99.90;;;;;;5036073;28;20224;-56
2022/06/26 05:45:55;;;;;;;9.30;8.67;;;20.90;99.90;;;;;;5035207;28;20203;-51
2022/06/26 05:48:26;;;;;;;9.90;8.97;;;21.00;99.90;;;;;;5034980;28;20288;-55
2022/06/26 05:51:26;;;;;;;10.40;9.60;;;21.10;99.90;;;;;;5022883;28;20562;-54
2022/06/26 05:54:03;;;;;;;8.43;7.83;;;21.20;99.90;;;;;;5018344;28;21162;-54
2022/06/26 05:56:57;;;;;;;9.00;8.30;;;21.40;99.90;;;;;;5022160;28;21254;-56
2022/06/26 05:59:39;;;;;;;8.47;7.77;;;21.70;99.90;;;;;;5040572;28;20211;-55
2022/06/26 06:02:25;;;;;;;9.00;8.27;;;21.80;99.90;;;;;;5032749;28;20429;-55
2022/06/26 06:04:52;;;;;;;8.77;7.95;;;22.00;99.90;;;;;;5017981;28;20451;-54
2022/06/26 06:07:21;;;;;;;8.25;7.55;;;22.20;99.90;;;;;;5037141;28;20203;-56
2022/06/26 06:09:47;;;;;;;7.22;6.65;;;22.30;99.90;;;;;;5029061;28;20535;-54
2022/06/26 06:12:14;;;;;;;7.07;6.68;;;22.30;99.90;;;;;;5034296;28;20216;-56
2022/06/26 06:14:41;;;;;;;7.15;6.45;;;22.40;99.90;;;;;;5035109;28;20218;-56
2022/06/26 06:19:53;;;;;;;6.68;6.25;;;22.50;99.90;;;;;;5036320;28;20561;-56
2022/06/26 06:22:24;;;;;;;6.00;5.60;;;22.50;99.90;;;;;;5030211;28;20218;-56
2022/06/26 06:24:53;;;;;;;7.68;6.93;;;22.50;99.90;;;;;;5015466;28;20206;-57
2022/06/26 06:27:20;;;;;;;6.38;5.80;;;22.50;99.90;;;;;;5039855;28;20199;-55
2022/06/26 06:29:47;;;;;;;7.30;6.60;;;22.50;99.90;;;;;;5022139;28;20231;-53
2022/06/26 06:32:14;;;;;;;7.00;6.40;;;22.50;99.90;;;;;;5038378;28;20940;-52
2022/06/26 06:34:41;;;;;;;6.40;5.90;;;22.50;99.90;;;;;;5038632;28;20195;-56
2022/06/26 06:37:08;;;;;;;6.78;6.15;;;22.50;99.90;;;;;;5031704;28;20236;-56
2022/06/26 06:39:36;;;;;;;6.70;6.20;;;22.50;99.90;;;;;;5031028;28;20463;-56
2022/06/26 06:42:05;;;;;;;7.07;6.47;;;22.70;99.90;;;;;;5021542;28;20432;-56
2022/06/26 06:44:33;;;;;;;6.28;5.88;;;22.90;99.90;;;;;;5035357;28;20458;-55
2022/06/26 06:47:17;;;;;;;6.47;5.95;;;23.00;99.90;;;;;;5035213;28;20946;-54
2022/06/26 06:50:16;;;;;;;6.38;5.85;;;23.00;99.90;;;;;;5032391;28;20192;-54
2022/06/26 06:52:43;;;;;;;6.57;6.07;;;23.00;99.90;;;;;;5041998;28;20445;-54
2022/06/26 06:55:11;;;;;;;6.88;6.32;;;23.30;99.90;;;;;;5019774;28;20528;-51
2022/06/26 06:57:39;;;;;;;6.83;6.23;;;23.50;99.90;;;;;;5024036;28;20538;-52
2022/06/26 07:00:06;;;;;;;6.40;6.00;;;23.60;99.90;;;;;;5027488;28;20203;-50
2022/06/26 07:02:33;;;;;;;7.17;6.57;;;23.50;99.90;;;;;;5032757;28;20445;-53
2022/06/26 07:05:01;;;;;;;6.65;6.15;;;23.70;99.90;;;;;;5029006;28;20432;-55
2022/06/26 07:07:28;;;;;;;6.38;5.93;;;23.90;99.90;;;;;;5025637;28;20431;-52
2022/06/26 07:09:55;;;;;;;6.28;5.75;;;24.00;99.90;;;;;;5027715;28;20305;-56
2022/06/26 07:12:25;;;;;;;6.18;5.40;;;24.00;99.90;;;;;;5018318;28;20222;-57
2022/06/26 07:14:53;;;;;;;6.25;5.75;;;24.00;99.90;;;;;;5036950;28;20196;-55
2022/06/26 07:17:21;;;;;;;7.47;4.90;;;24.00;99.90;;;;;;5027423;28;20215;-50
2022/06/26 07:19:52;;;;;;;5.70;5.28;;;24.00;99.90;;;;;;5032819;28;20191;-52
2022/06/26 07:22:19;;;;;;;5.82;5.38;;;24.10;99.90;;;;;;5030160;28;20223;-52
2022/06/26 07:24:47;;;;;;;5.18;4.88;;;24.20;99.90;;;;;;5036175;28;20195;-53
2022/06/26 07:27:27;;;;;;;6.10;5.50;;;24.30;99.90;;;;;;5035743;28;20190;-51
2022/06/26 07:29:54;;;;;;;5.20;4.70;;;24.30;99.90;;;;;;5025946;28;20704;-55
2022/06/26 07:32:21;;;;;;;4.95;4.65;;;24.40;99.90;;;;;;5026958;28;20222;-50
2022/06/26 07:34:48;;;;;;;5.32;4.38;;;24.50;99.90;;;;;;5031616;28;20238;-52
2022/06/26 07:37:14;;;;;;;4.72;4.43;;;24.70;99.90;;;;;;5029962;28;20214;-52
2022/06/26 07:39:41;;;;;;;5.57;4.90;;;24.80;99.90;;;;;;5024244;28;20210;-52
2022/06/26 07:42:08;;;;;;;5.57;4.32;;;24.90;99.90;;;;;;5033721;28;20227;-53
2022/06/26 07:44:38;;;;;;;4.20;3.90;;;24.90;99.90;;;;;;5024003;28;20203;-50
2022/06/26 07:47:05;;;;;;;4.93;4.40;;;25.00;99.90;;;;;;5031970;28;20289;-56
2022/06/26 07:50:06;;;;;;;4.45;3.78;;;25.10;99.90;;;;;;5035372;28;20672;-51
2022/06/26 07:52:33;;;;;;;4.72;4.32;;;25.30;99.90;;;;;;5037388;28;20239;-53
2022/06/26 07:55:00;;;;;;;4.35;4.05;;;25.30;99.90;;;;;;5031901;28;20199;-51
2022/06/26 07:57:27;;;;;;;4.28;3.97;;;25.40;99.90;;;;;;5031687;28;20215;-48
2022/06/26 07:59:56;;;;;;;4.57;4.20;;;25.40;99.90;;;;;;5023031;28;20558;-53
2022/06/26 08:02:23;;;;;;;5.97;4.40;;;25.50;99.90;;;;;;5027646;28;20953;-47
2022/06/26 08:04:49;;;;;;;4.40;3.97;;;25.60;99.90;;;;;;5039004;28;20195;-53
2022/06/26 08:07:16;;;;;;;4.13;3.83;;;25.70;99.90;;;;;;5033964;28;20192;-52
2022/06/26 08:09:43;;;;;;;5.45;3.60;;;25.90;99.90;;;;;;5040192;28;20629;-57
2022/06/26 08:12:10;;;;;;;4.13;3.78;;;25.90;99.90;;;;;;5032316;28;20675;-55
2022/06/26 08:14:37;;;;;;;4.38;4.13;;;26.10;99.90;;;;;;5024812;28;20210;-56
2022/06/26 08:17:05;;;;;;;4.30;4.00;;;26.10;99.90;;;;;;5037460;28;20215;-53
2022/06/26 08:19:32;;;;;;;5.05;3.30;;;26.10;99.40;;;;;;5030646;28;20200;-50
2022/06/26 08:22:02;;;;;;;4.15;3.60;;;26.10;99.10;;;;;;5035981;28;20234;-53
2022/06/26 08:24:30;;;;;;;4.32;3.45;;;26.30;99.00;;;;;;5030568;28;20344;-46
2022/06/26 08:26:57;;;;;;;4.13;3.72;;;26.50;98.30;;;;;;5035804;28;20699;-51
2022/06/26 08:29:24;;;;;;;4.60;4.20;;;26.60;97.80;;;;;;5022889;28;20211;-50
2022/06/26 08:31:51;;;;;;;3.70;3.05;;;26.70;98.10;;;;;;5037298;28;20226;-52
2022/06/26 08:34:19;;;;;;;3.58;3.30;;;26.70;96.90;;;;;;5028509;28;20206;-52
2022/06/26 08:36:46;;;;;;;3.30;2.72;;;26.70;96.80;;;;;;5036609;28;20215;-51
2022/06/26 08:39:14;;;;;;;3.63;3.42;;;26.70;96.50;;;;;;5031741;28;20191;-48
2022/06/26 08:41:42;;;;;;;3.17;2.97;;;26.80;96.10;;;;;;5039732;28;20223;-50
2022/06/26 08:44:10;;;;;;;3.63;3.33;;;26.90;95.80;;;;;;5024614;28;20199;-55
2022/06/26 08:46:39;;;;;;;4.15;3.38;;;27.00;95.50;;;;;;5039065;28;20228;-52
2022/06/26 08:49:09;;;;;;;3.63;3.08;;;27.10;95.40;;;;;;5036531;28;20207;-51
2022/06/26 08:51:39;;;;;;;2.50;2.40;;;27.20;94.20;;;;;;5035381;28;20230;-48
2022/06/26 08:54:09;;;;;;;2.00;1.90;;;27.20;93.20;;;;;;5030416;28;20565;-55
2022/06/26 08:56:38;;;;;;;3.50;2.00;;;27.10;91.80;;;;;;5040297;28;20239;-53
2022/06/26 08:59:05;;;;;;;2.72;2.13;;;27.10;91.10;;;;;;5038726;28;20199;-56
2022/06/26 09:01:32;;;;;;;12.00;2.72;;;27.20;91.20;;;;;;5027646;28;20215;-56
2022/06/26 09:03:59;;;;;;;2.50;2.30;;;27.20;91.10;;;;;;5036347;28;20191;-52
2022/06/26 09:06:25;;;;;;;4.10;2.20;;;27.10;91.20;;;;;;5032509;28;20199;-54
2022/06/26 09:08:53;;;;;;;3.75;2.50;;;27.10;91.50;;;;;;5043101;28;20671;-52
2022/06/26 09:11:21;;;;;;;2.50;2.30;;;27.00;91.40;;;;;;5040189;28;20953;-52
2022/06/26 09:13:49;;;;;;;2.97;2.50;;;27.00;91.30;;;;;;5045665;28;20208;-53
2022/06/26 09:16:16;;;;;;;2.63;2.50;;;27.00;91.50;;;;;;5017859;28;20215;-51
2022/06/26 09:18:44;;;;;;;3.22;2.55;;;27.10;91.50;;;;;;5044285;28;20557;-54
2022/06/26 09:21:12;;;;;;;3.72;2.67;;;27.00;91.70;;;;;;5033701;28;20203;-52
2022/06/26 09:23:40;;;;;;;3.03;2.75;;;27.00;92.10;;;;;;5043868;28;20203;-53
2022/06/26 09:26:08;;;;;;;2.85;2.75;;;27.20;92.00;;;;;;5035774;28;20212;-55
2022/06/26 09:28:35;;;;;;;2.70;2.50;;;27.10;91.80;;;;;;5040817;28;20657;-49
2022/06/26 09:31:04;;;;;;;2.80;2.60;;;27.10;91.50;;;;;;5037002;28;20211;-55
2022/06/26 09:33:33;;;;;;;2.75;2.60;;;27.10;91.60;;;;;;5003148;28;20223;-52
2022/06/26 09:36:02;;;;;;;2.80;2.60;;;27.10;91.60;;;;;;5036731;28;20206;-53
2022/06/26 09:38:30;;;;;;;4.43;2.47;;;27.00;91.70;;;;;;5026056;28;20237;-51
2022/06/26 09:40:59;;;;;;;2.80;2.60;;;27.10;91.70;;;;;;5042124;28;20204;-54
2022/06/26 09:43:33;;;;;;;7.18;2.90;;;27.00;91.20;;;;;;5034109;28;20215;-54
2022/06/26 09:46:01;;;;;;;2.53;2.33;;;27.00;91.50;;;;;;5040065;28;20199;-56
2022/06/26 09:48:28;;;;;;;4.13;2.80;;;27.00;91.20;;;;;;5025917;28;20211;-56
2022/06/26 09:50:57;;;;;;;3.00;2.80;;;27.00;91.80;;;;;;5039460;28;20211;-54
2022/06/26 09:53:27;;;;;;;3.83;2.55;;;27.10;91.60;;;;;;5029732;28;20211;-53
2022/06/26 09:55:55;;;;;;;4.47;2.60;;;27.20;91.40;;;;;;5038608;28;20231;-56
2022/06/26 09:58:24;;;;;;;2.95;2.75;;;27.30;91.30;;;;;;5038403;28;20227;-56
2022/06/26 10:06:28;;;;;;;3.13;2.80;;;27.40;91.30;;;;;;5030709;28;20223;-54
2022/06/26 10:08:56;;;;;;;3.08;2.90;;;27.50;90.70;;;;;;5036832;28;20610;-56
2022/06/26 10:11:25;;;;;;;2.90;2.67;;;27.50;90.40;;;;;;5041461;28;20208;-51
2022/06/26 10:13:54;;;;;;;2.55;2.35;;;27.30;90.50;;;;;;5042451;28;20218;-55
2022/06/26 10:16:57;;;;;;;3.08;2.45;;;27.40;90.40;;;;;;5034933;28;20196;-56
2022/06/26 10:19:30;;;;;;;2.95;2.75;;;27.40;90.00;;;;;;4991164;28;20571;-54
2022/06/26 10:21:57;;;;;;;3.38;2.83;;;27.30;90.60;;;;;;5036412;28;20227;-54
2022/06/26 10:24:24;;;;;;;2.58;2.47;;;27.30;90.90;;;;;;5034476;28;20261;-56
2022/06/26 10:26:53;;;;;;;3.15;2.58;;;27.60;90.70;;;;;;5040057;28;20743;-54
2022/06/26 10:29:20;;;;;;;2.65;2.45;;;27.70;90.50;;;;;;5040101;28;20613;-55
2022/06/26 10:31:48;;;;;;;2.63;2.42;;;27.70;89.80;;;;;;5041896;28;20221;-54
2022/06/26 10:34:21;;;;;;;2.70;2.58;;;27.50;90.20;;;;;;5026736;28;20697;-55
2022/06/26 10:37:10;;;;;;;2.90;2.50;;;27.50;90.00;;;;;;5041383;28;20215;-56
2022/06/26 10:39:41;;;;;;;3.13;2.78;;;27.50;89.70;;;;;;5027915;28;20212;-52
2022/06/26 10:44:59;;;;;;;3.80;3.30;;;27.60;90.00;;;;;;5033529;28;20202;-56
2022/06/26 10:47:41;;;;;;;3.03;2.83;;;27.70;90.00;;;;;;5031289;28;20200;-52
2022/06/26 10:50:27;;;;;;;2.80;2.60;;;27.90;90.10;;;;;;5026386;28;20211;-55
2022/06/26 10:52:54;;;;;;;3.63;3.42;;;27.90;90.10;;;;;;5037836;28;20591;-56
2022/06/26 10:55:21;;;;;;;4.40;4.05;;;27.80;90.90;;;;;;5025095;28;20204;-53
2022/06/26 10:57:49;;;;;;;4.07;3.78;;;27.80;92.00;;;;;;5036067;28;20223;-53
2022/06/26 11:00:16;;;;;;;4.85;4.45;;;27.80;92.50;;;;;;5028382;28;20200;-55
2022/06/26 11:02:47;;;;;;;4.40;4.00;;;27.80;92.50;;;;;;5030788;28;20211;-55
2022/06/26 11:05:15;;;;;;;4.90;4.57;;;27.70;92.70;;;;;;5019431;28;20207;-55
2022/06/26 11:07:47;;;;;;;5.03;4.18;;;27.50;93.20;;;;;;5034043;28;20199;-55
2022/06/26 11:10:16;;;;;;;5.43;4.93;;;27.40;93.30;;;;;;5034845;28;20279;-54
2022/06/26 11:12:44;;;;;;;4.88;4.50;;;27.60;93.50;;;;;;5033433;28;20218;-55
2022/06/26 11:15:26;;;;;;;6.18;5.03;;;27.50;93.40;;;;;;5037545;28;20188;-53
2022/06/26 11:17:56;;;;;;;6.13;5.63;;;27.40;93.00;;;;;;5034030;28;20309;-56
2022/06/26 11:23:18;;;;;;;6.32;5.68;;;27.40;93.30;;;;;;5035148;28;20223;-55
2022/06/26 11:25:47;;;;;;;5.60;5.20;;;27.40;93.40;;;;;;5036432;28;20260;-52
2022/06/26 11:28:14;;;;;;;7.00;6.20;;;27.50;93.20;;;;;;5030318;28;20198;-55
2022/06/26 11:30:43;;;;;;;6.43;5.95;;;27.50;93.00;;;;;;5038881;28;20214;-55
2022/06/26 11:33:10;;;;;;;5.38;4.40;;;27.30;93.00;;;;;;5036806;28;20645;-53
2022/06/26 11:35:38;;;;;;;4.78;4.38;;;27.30;93.50;;;;;;5040209;28;20296;-53
2022/06/26 11:38:13;;;;;;;5.60;5.13;;;27.40;93.50;;;;;;5028918;28;20229;-53
2022/06/26 11:40:40;;;;;;;4.82;4.40;;;27.60;93.10;;;;;;5031403;28;20305;-55
2022/06/26 11:43:08;;;;;;;5.55;5.15;;;27.50;93.00;;;;;;5033742;28;20595;-51
2022/06/26 11:45:35;;;;;;;4.93;4.40;;;27.30;93.00;;;;;;5034092;28;20245;-51
2022/06/26 11:48:06;;;;;;;5.90;5.50;;;27.20;93.60;;;;;;5043229;28;20199;-56
2022/06/26 11:50:36;;;;;;;7.13;5.43;;;27.30;93.60;;;;;;5028348;28;20918;-56
2022/06/26 11:53:05;;;;;;;6.43;5.82;;;27.20;93.50;;;;;;5025976;28;20226;-53
2022/06/26 11:55:32;;;;;;;4.78;4.47;;;27.30;93.50;;;;;;5027047;28;20191;-56
2022/06/26 11:58:02;;;;;;;4.35;4.05;;;27.30;93.80;;;;;;5040329;28;21611;-55
2022/06/26 12:00:30;;;;;;;5.57;5.15;;;27.50;93.80;;;;;;5032080;28;20218;-54
2022/06/26 12:02:57;;;;;;;5.43;4.40;;;27.60;94.00;;;;;;5041505;28;20272;-51
2022/06/26 12:05:27;;;;;;;5.93;5.32;;;27.30;94.80;;;;;;5035828;28;20200;-54
2022/06/26 12:07:55;;;;;;;5.25;4.82;;;27.30;95.10;;;;;;5027717;28;20286;-53
2022/06/26 12:10:31;;;;;;;5.90;5.28;;;27.10;95.60;;;;;;5038837;28;20202;-54
2022/06/26 12:12:58;;;;;;;4.97;4.43;;;27.00;95.70;;;;;;5035823;28;20230;-52
2022/06/26 12:15:26;;;;;;;5.60;5.10;;;26.80;96.10;;;;;;5031860;28;20214;-56
2022/06/26 12:17:55;;;;;;;5.40;4.30;;;26.90;96.20;;;;;;5033007;28;20223;-52
2022/06/26 12:20:22;;;;;;;4.35;3.95;;;26.90;96.30;;;;;;5033259;28;20287;-54
2022/06/26 12:22:51;;;;;;;5.45;4.13;;;27.00;96.40;;;;;;5027070;28;20277;-54
2022/06/26 12:25:38;;;;;;;5.70;5.20;;;27.20;96.30;;;;;;5035813;28;20192;-54
2022/06/26 12:28:06;;;;;;;5.68;5.28;;;27.10;96.40;;;;;;5034633;28;20282;-54
2022/06/26 12:30:34;;;;;;;5.50;5.07;;;26.90;96.70;;;;;;5037281;28;20871;-52
2022/06/26 12:33:04;;;;;;;5.00;4.30;;;26.80;97.10;;;;;;5045999;28;20595;-53
2022/06/26 12:35:33;;;;;;;4.75;4.32;;;27.00;97.10;;;;;;5042502;28;20195;-54
2022/06/26 12:38:00;;;;;;;4.20;3.80;;;27.10;96.40;;;;;;5046606;28;20555;-48
2022/06/26 12:40:28;;;;;;;4.20;3.90;;;27.10;96.50;;;;;;5028414;28;20211;-56
2022/06/26 12:42:56;;;;;;;5.00;4.60;;;27.20;95.80;;;;;;5041692;28;20265;-50
2022/06/26 12:45:23;;;;;;;4.47;4.18;;;27.20;95.40;;;;;;5024393;28;20212;-53
2022/06/26 12:47:50;;;;;;;4.20;3.90;;;27.10;95.20;;;;;;5039880;28;20196;-55
2022/06/26 12:50:17;;;;;;;4.68;4.35;;;27.20;95.00;;;;;;5043744;28;20206;-55
2022/06/26 12:52:44;;;;;;;4.00;3.70;;;27.30;94.80;;;;;;5044615;28;20223;-56
2022/06/26 12:55:11;;;;;;;4.40;4.03;;;27.20;95.20;;;;;;5031146;28;20211;-55
2022/06/26 12:57:38;;;;;;;3.60;3.30;;;27.30;95.60;;;;;;5039968;28;20940;-49
2022/06/26 13:00:08;;;;;;;4.10;3.70;;;27.20;95.60;;;;;;5039852;28;20217;-56
2022/06/26 13:02:35;;;;;;;3.58;3.28;;;27.30;95.40;;;;;;5034618;28;20382;-50
2022/06/26 13:05:02;;;;;;;4.22;3.65;;;27.40;95.50;;;;;;5042439;28;20205;-55
2022/06/26 13:07:29;;;;;;;3.85;3.65;;;27.60;95.30;;;;;;5037658;28;20207;-55
2022/06/26 13:09:56;;;;;;;4.40;3.95;;;27.80;94.90;;;;;;5043712;28;20567;-57
2022/06/26 13:12:23;;;;;;;3.72;3.53;;;27.90;94.60;;;;;;5025954;28;20219;-54